Vincent, Kentucky
Current Conditions -  °F | °C
As of 2:53 AM on Saturday 27 Dec 2014 (Local Time) from KJKL Reporting Station
Overcast Overcast  
Wind Chill: 44°   Ceiling: 12000
Heat Index: 46°   Visibility: 10mi
Dew Point: 27°   Wind: 5mph
Humidity: 47%   Direction: 250°WSW
Pressure: 30.24"   Gusts: NA
Location:  37.47°N, 83.77°W
Report Text: KJKL 270753Z AUTO 25004KT 10SM OVC120 08/M03 A3024 RMK AO2 SLP241 T00781028 $
Loading
Personal Weather Stations






























Interactive Weather Map New forecast layout! Learn more

10-Day Weather Forecast

Advertisements
Track Severe Weather on mobile